sensor_id;sensor_type;location;lat;lon;timestamp;temperature;humidity
12655;DHT22;6392;44.644;11.448;2023-12-07T00:02:16;3.70;99.90
12655;DHT22;6392;44.644;11.448;2023-12-07T00:04:43;3.70;99.90
12655;DHT22;6392;44.644;11.448;2023-12-07T00:07:10;3.60;99.90
12655;DHT22;6392;44.644;11.448;2023-12-07T00:09:38;3.50;99.90
12655;DHT22;6392;44.644;11.448;2023-12-07T00:12:07;3.50;99.90
12655;DHT22;6392;44.644;11.448;2023-12-07T00:14:34;3.60;99.90
12655;DHT22;6392;44.644;11.448;2023-12-07T00:17:01;3.50;99.90
12655;DHT22;6392;44.644;11.448;2023-12-07T00:19:28;3.40;99.90
12655;DHT22;6392;44.644;11.448;2023-12-07T00:21:55;3.30;99.90
12655;DHT22;6392;44.644;11.448;2023-12-07T00:24:22;3.30;99.90
12655;DHT22;6392;44.644;11.448;2023-12-07T00:26:49;3.20;99.90
12655;DHT22;6392;44.644;11.448;2023-12-07T00:29:17;3.30;99.90
12655;DHT22;6392;44.644;11.448;2023-12-07T00:31:44;3.20;99.90
12655;DHT22;6392;44.644;11.448;2023-12-07T00:34:11;3.10;99.90
12655;DHT22;6392;44.644;11.448;2023-12-07T00:36:38;3.10;99.90
12655;DHT22;6392;44.644;11.448;2023-12-07T00:39:06;3.00;99.90
12655;DHT22;6392;44.644;11.448;2023-12-07T00:41:34;3.00;99.90
12655;DHT22;6392;44.644;11.448;2023-12-07T00:44:01;3.00;99.90
12655;DHT22;6392;44.644;11.448;2023-12-07T00:46:29;2.90;99.90
12655;DHT22;6392;44.644;11.448;2023-12-07T00:48:57;2.90;99.90
12655;DHT22;6392;44.644;11.448;2023-12-07T00:51:24;2.80;99.90
12655;DHT22;6392;44.644;11.448;2023-12-07T00:53:51;2.80;99.90
12655;DHT22;6392;44.644;11.448;2023-12-07T00:56:18;2.70;99.90
12655;DHT22;6392;44.644;11.448;2023-12-07T00:58:45;2.70;99.90
12655;DHT22;6392;44.644;11.448;2023-12-07T01:01:12;2.70;99.90
12655;DHT22;6392;44.644;11.448;2023-12-07T01:03:41;2.70;99.90
12655;DHT22;6392;44.644;11.448;2023-12-07T01:06:08;2.70;99.90
12655;DHT22;6392;44.644;11.448;2023-12-07T01:08:37;2.70;99.90
12655;DHT22;6392;44.644;11.448;2023-12-07T01:11:04;2.70;99.90
12655;DHT22;6392;44.644;11.448;2023-12-07T01:13:31;2.70;99.90
12655;DHT22;6392;44.644;11.448;2023-12-07T01:15:58;2.70;99.90
12655;DHT22;6392;44.644;11.448;2023-12-07T01:18:25;2.80;99.90
12655;DHT22;6392;44.644;11.448;2023-12-07T01:20:54;2.80;99.90
12655;DHT22;6392;44.644;11.448;2023-12-07T01:23:21;2.90;99.90
12655;DHT22;6392;44.644;11.448;2023-12-07T01:25:48;3.00;99.90
12655;DHT22;6392;44.644;11.448;2023-12-07T01:28:15;3.00;99.90
12655;DHT22;6392;44.644;11.448;2023-12-07T01:30:42;3.00;99.90
12655;DHT22;6392;44.644;11.448;2023-12-07T01:33:09;2.90;99.90
12655;DHT22;6392;44.644;11.448;2023-12-07T01:35:37;2.80;99.90
12655;DHT22;6392;44.644;11.448;2023-12-07T01:38:05;2.80;99.90
12655;DHT22;6392;44.644;11.448;2023-12-07T01:40:32;2.80;99.90
12655;DHT22;6392;44.644;11.448;2023-12-07T01:43:00;2.70;99.90
12655;DHT22;6392;44.644;11.448;2023-12-07T01:45:27;2.70;99.90
12655;DHT22;6392;44.644;11.448;2023-12-07T01:47:55;2.70;99.90
12655;DHT22;6392;44.644;11.448;2023-12-07T01:50:24;2.80;99.90
12655;DHT22;6392;44.644;11.448;2023-12-07T01:52:55;2.80;99.90
12655;DHT22;6392;44.644;11.448;2023-12-07T01:55:25;2.80;99.90
12655;DHT22;6392;44.644;11.448;2023-12-07T01:57:53;2.70;99.90
12655;DHT22;6392;44.644;11.448;2023-12-07T02:00:20;2.70;99.90
12655;DHT22;6392;44.644;11.448;2023-12-07T02:02:57;2.60;99.90
12655;DHT22;6392;44.644;11.448;2023-12-07T02:05:25;2.50;99.90
12655;DHT22;6392;44.644;11.448;2023-12-07T02:07:53;2.50;99.90
12655;DHT22;6392;44.644;11.448;2023-12-07T02:10:20;2.60;99.90
12655;DHT22;6392;44.644;11.448;2023-12-07T02:12:49;2.60;99.90
12655;DHT22;6392;44.644;11.448;2023-12-07T02:15:16;2.70;99.90
12655;DHT22;6392;44.644;11.448;2023-12-07T02:17:49;2.70;99.90
12655;DHT22;6392;44.644;11.448;2023-12-07T02:20:24;2.70;99.90
12655;DHT22;6392;44.644;11.448;2023-12-07T02:22:55;2.70;99.90
12655;DHT22;6392;44.644;11.448;2023-12-07T02:25:24;2.80;99.90
12655;DHT22;6392;44.644;11.448;2023-12-07T02:27:54;2.80;99.90
12655;DHT22;6392;44.644;11.448;2023-12-07T02:30:21;2.90;99.90
12655;DHT22;6392;44.644;11.448;2023-12-07T02:32:48;2.90;99.90
12655;DHT22;6392;44.644;11.448;2023-12-07T02:35:15;2.90;99.90
12655;DHT22;6392;44.644;11.448;2023-12-07T02:37:44;2.90;99.90
12655;DHT22;6392;44.644;11.448;2023-12-07T02:40:14;2.90;99.90
12655;DHT22;6392;44.644;11.448;2023-12-07T02:42:43;2.90;99.90
12655;DHT22;6392;44.644;11.448;2023-12-07T02:45:12;2.80;99.90
12655;DHT22;6392;44.644;11.448;2023-12-07T02:47:39;2.80;99.90
12655;DHT22;6392;44.644;11.448;2023-12-07T02:50:09;2.80;99.90
12655;DHT22;6392;44.644;11.448;2023-12-07T02:52:36;2.80;99.90
12655;DHT22;6392;44.644;11.448;2023-12-07T02:55:04;2.80;99.90
12655;DHT22;6392;44.644;11.448;2023-12-07T02:57:31;2.70;99.90
12655;DHT22;6392;44.644;11.448;2023-12-07T02:59:59;2.70;99.90
12655;DHT22;6392;44.644;11.448;2023-12-07T03:02:28;2.70;99.90
12655;DHT22;6392;44.644;11.448;2023-12-07T03:04:55;2.60;99.90
12655;DHT22;6392;44.644;11.448;2023-12-07T03:07:22;2.50;99.90
12655;DHT22;6392;44.644;11.448;2023-12-07T03:09:49;2.40;99.90
12655;DHT22;6392;44.644;11.448;2023-12-07T03:12:16;2.40;99.90
12655;DHT22;6392;44.644;11.448;2023-12-07T03:14:43;2.50;99.90
12655;DHT22;6392;44.644;11.448;2023-12-07T03:17:10;2.60;99.90
12655;DHT22;6392;44.644;11.448;2023-12-07T03:19:39;2.70;99.90
12655;DHT22;6392;44.644;11.448;2023-12-07T03:22:07;2.80;99.90
12655;DHT22;6392;44.644;11.448;2023-12-07T03:24:34;2.80;99.90
12655;DHT22;6392;44.644;11.448;2023-12-07T03:27:01;2.70;99.90
12655;DHT22;6392;44.644;11.448;2023-12-07T03:29:28;2.70;99.90
12655;DHT22;6392;44.644;11.448;2023-12-07T03:31:55;2.60;99.90
12655;DHT22;6392;44.644;11.448;2023-12-07T03:34:23;2.50;99.90
12655;DHT22;6392;44.644;11.448;2023-12-07T03:36:51;2.50;99.90
12655;DHT22;6392;44.644;11.448;2023-12-07T03:39:18;2.40;99.90
12655;DHT22;6392;44.644;11.448;2023-12-07T03:41:48;2.50;99.90
12655;DHT22;6392;44.644;11.448;2023-12-07T03:44:15;2.50;99.90
12655;DHT22;6392;44.644;11.448;2023-12-07T03:46:42;2.50;99.90
12655;DHT22;6392;44.644;11.448;2023-12-07T03:49:09;2.60;99.90
12655;DHT22;6392;44.644;11.448;2023-12-07T03:51:37;2.60;99.90
12655;DHT22;6392;44.644;11.448;2023-12-07T03:54:05;2.60;99.90
12655;DHT22;6392;44.644;11.448;2023-12-07T03:56:33;2.50;99.90
12655;DHT22;6392;44.644;11.448;2023-12-07T03:59:00;2.50;99.90
12655;DHT22;6392;44.644;11.448;2023-12-07T04:01:28;2.50;99.90
12655;DHT22;6392;44.644;11.448;2023-12-07T04:03:57;2.60;99.90
12655;DHT22;6392;44.644;11.448;2023-12-07T04:06:24;2.60;99.90
12655;DHT22;6392;44.644;11.448;2023-12-07T04:08:51;2.60;99.90
12655;DHT22;6392;44.644;11.448;2023-12-07T04:11:21;2.60;99.90
12655;DHT22;6392;44.644;11.448;2023-12-07T04:13:48;2.50;99.90
12655;DHT22;6392;44.644;11.448;2023-12-07T04:16:15;2.50;99.90
12655;DHT22;6392;44.644;11.448;2023-12-07T04:18:42;2.50;99.90
12655;DHT22;6392;44.644;11.448;2023-12-07T04:21:09;2.50;99.90
12655;DHT22;6392;44.644;11.448;2023-12-07T04:23:37;2.50;99.90
12655;DHT22;6392;44.644;11.448;2023-12-07T04:26:04;2.50;99.90
12655;DHT22;6392;44.644;11.448;2023-12-07T04:28:32;2.50;99.90
12655;DHT22;6392;44.644;11.448;2023-12-07T04:30:59;2.50;99.90
12655;DHT22;6392;44.644;11.448;2023-12-07T04:33:26;2.50;99.90
12655;DHT22;6392;44.644;11.448;2023-12-07T04:35:54;2.50;99.90
12655;DHT22;6392;44.644;11.448;2023-12-07T04:38:21;2.50;99.90
12655;DHT22;6392;44.644;11.448;2023-12-07T04:40:48;2.50;99.90
12655;DHT22;6392;44.644;11.448;2023-12-07T04:43:16;2.50;99.90
12655;DHT22;6392;44.644;11.448;2023-12-07T04:45:44;2.60;99.90
12655;DHT22;6392;44.644;11.448;2023-12-07T04:48:11;2.60;99.90
12655;DHT22;6392;44.644;11.448;2023-12-07T04:50:38;2.60;99.90
12655;DHT22;6392;44.644;11.448;2023-12-07T04:53:05;2.60;99.90
12655;DHT22;6392;44.644;11.448;2023-12-07T04:55:32;2.60;99.90
12655;DHT22;6392;44.644;11.448;2023-12-07T04:57:59;2.60;99.90
12655;DHT22;6392;44.644;11.448;2023-12-07T05:00:26;2.50;99.90
12655;DHT22;6392;44.644;11.448;2023-12-07T05:02:55;2.50;99.90
12655;DHT22;6392;44.644;11.448;2023-12-07T05:05:22;2.50;99.90
12655;DHT22;6392;44.644;11.448;2023-12-07T05:07:50;2.50;99.90
12655;DHT22;6392;44.644;11.448;2023-12-07T05:10:17;2.50;99.90
12655;DHT22;6392;44.644;11.448;2023-12-07T05:12:44;2.50;99.90
12655;DHT22;6392;44.644;11.448;2023-12-07T05:15:11;2.60;99.90
12655;DHT22;6392;44.644;11.448;2023-12-07T05:17:38;2.60;99.90
12655;DHT22;6392;44.644;11.448;2023-12-07T05:20:08;2.60;99.90
12655;DHT22;6392;44.644;11.448;2023-12-07T05:22:35;2.60;99.90
12655;DHT22;6392;44.644;11.448;2023-12-07T05:25:02;2.60;99.90
12655;DHT22;6392;44.644;11.448;2023-12-07T05:27:30;2.60;99.90
12655;DHT22;6392;44.644;11.448;2023-12-07T05:29:57;2.70;99.90
12655;DHT22;6392;44.644;11.448;2023-12-07T05:32:24;2.70;99.90
12655;DHT22;6392;44.644;11.448;2023-12-07T05:34:51;2.70;99.90
12655;DHT22;6392;44.644;11.448;2023-12-07T05:37:20;2.70;99.90
12655;DHT22;6392;44.644;11.448;2023-12-07T05:39:47;2.70;99.90
12655;DHT22;6392;44.644;11.448;2023-12-07T05:42:14;2.60;99.90
12655;DHT22;6392;44.644;11.448;2023-12-07T05:44:41;2.60;99.90
12655;DHT22;6392;44.644;11.448;2023-12-07T05:47:09;2.60;99.90
12655;DHT22;6392;44.644;11.448;2023-12-07T05:49:36;2.60;99.90
12655;DHT22;6392;44.644;11.448;2023-12-07T05:52:03;2.60;99.90
12655;DHT22;6392;44.644;11.448;2023-12-07T05:54:32;2.60;99.90
12655;DHT22;6392;44.644;11.448;2023-12-07T05:56:59;2.70;99.90
12655;DHT22;6392;44.644;11.448;2023-12-07T05:59:27;2.70;99.90
12655;DHT22;6392;44.644;11.448;2023-12-07T06:01:54;2.60;99.90
12655;DHT22;6392;44.644;11.448;2023-12-07T06:04:21;2.60;99.90
12655;DHT22;6392;44.644;11.448;2023-12-07T06:06:48;2.50;99.90
12655;DHT22;6392;44.644;11.448;2023-12-07T06:09:15;2.50;99.90
12655;DHT22;6392;44.644;11.448;2023-12-07T06:11:43;2.50;99.90
12655;DHT22;6392;44.644;11.448;2023-12-07T06:14:11;2.50;99.90
12655;DHT22;6392;44.644;11.448;2023-12-07T06:16:38;2.50;99.90
12655;DHT22;6392;44.644;11.448;2023-12-07T06:19:05;2.40;99.90
12655;DHT22;6392;44.644;11.448;2023-12-07T06:21:32;2.40;99.90
12655;DHT22;6392;44.644;11.448;2023-12-07T06:23:59;2.40;99.90
12655;DHT22;6392;44.644;11.448;2023-12-07T06:26:26;2.50;99.90
12655;DHT22;6392;44.644;11.448;2023-12-07T06:28:54;2.50;99.90
12655;DHT22;6392;44.644;11.448;2023-12-07T06:31:22;2.50;99.90
12655;DHT22;6392;44.644;11.448;2023-12-07T06:33:49;2.50;99.90
12655;DHT22;6392;44.644;11.448;2023-12-07T06:36:20;2.60;99.90
12655;DHT22;6392;44.644;11.448;2023-12-07T06:38:48;2.60;99.90
12655;DHT22;6392;44.644;11.448;2023-12-07T06:41:15;2.60;99.90
12655;DHT22;6392;44.644;11.448;2023-12-07T06:43:42;2.50;99.90
12655;DHT22;6392;44.644;11.448;2023-12-07T06:46:12;2.50;99.90
12655;DHT22;6392;44.644;11.448;2023-12-07T06:48:40;2.50;99.90
12655;DHT22;6392;44.644;11.448;2023-12-07T06:51:07;2.50;99.90
12655;DHT22;6392;44.644;11.448;2023-12-07T06:53:35;2.50;99.90
12655;DHT22;6392;44.644;11.448;2023-12-07T06:56:02;2.50;99.90
12655;DHT22;6392;44.644;11.448;2023-12-07T06:58:29;2.50;99.90
12655;DHT22;6392;44.644;11.448;2023-12-07T07:00:56;2.50;99.90
12655;DHT22;6392;44.644;11.448;2023-12-07T07:03:25;2.40;99.90
12655;DHT22;6392;44.644;11.448;2023-12-07T07:05:53;2.50;99.90
12655;DHT22;6392;44.644;11.448;2023-12-07T07:08:20;2.50;99.90
12655;DHT22;6392;44.644;11.448;2023-12-07T07:10:47;2.50;99.90
12655;DHT22;6392;44.644;11.448;2023-12-07T07:13:14;2.50;99.90
12655;DHT22;6392;44.644;11.448;2023-12-07T07:15:42;2.60;99.90
12655;DHT22;6392;44.644;11.448;2023-12-07T07:18:10;2.60;99.90
12655;DHT22;6392;44.644;11.448;2023-12-07T07:20:38;2.60;99.90
12655;DHT22;6392;44.644;11.448;2023-12-07T07:23:05;2.60;99.90
12655;DHT22;6392;44.644;11.448;2023-12-07T07:25:33;2.60;99.90
12655;DHT22;6392;44.644;11.448;2023-12-07T07:28:01;2.60;99.90
12655;DHT22;6392;44.644;11.448;2023-12-07T07:30:29;2.60;99.90
12655;DHT22;6392;44.644;11.448;2023-12-07T07:32:56;2.60;99.90
12655;DHT22;6392;44.644;11.448;2023-12-07T07:35:23;2.70;99.90
12655;DHT22;6392;44.644;11.448;2023-12-07T07:37:51;2.70;99.90
12655;DHT22;6392;44.644;11.448;2023-12-07T07:40:19;2.70;99.90
12655;DHT22;6392;44.644;11.448;2023-12-07T07:42:46;2.70;99.90
12655;DHT22;6392;44.644;11.448;2023-12-07T07:45:13;2.70;99.90
12655;DHT22;6392;44.644;11.448;2023-12-07T07:47:42;2.70;99.90
12655;DHT22;6392;44.644;11.448;2023-12-07T07:50:09;2.70;99.90
12655;DHT22;6392;44.644;11.448;2023-12-07T07:52:37;2.80;99.90
12655;DHT22;6392;44.644;11.448;2023-12-07T07:55:07;2.80;99.90
12655;DHT22;6392;44.644;11.448;2023-12-07T07:57:35;3.00;99.90
12655;DHT22;6392;44.644;11.448;2023-12-07T08:00:02;3.00;99.90
12655;DHT22;6392;44.644;11.448;2023-12-07T08:02:31;3.10;99.90
12655;DHT22;6392;44.644;11.448;2023-12-07T08:04:58;3.10;99.90
12655;DHT22;6392;44.644;11.448;2023-12-07T08:07:25;3.20;99.90
12655;DHT22;6392;44.644;11.448;2023-12-07T08:09:52;3.20;99.90
12655;DHT22;6392;44.644;11.448;2023-12-07T08:12:21;3.20;99.90
12655;DHT22;6392;44.644;11.448;2023-12-07T08:14:49;3.20;99.90
12655;DHT22;6392;44.644;11.448;2023-12-07T08:17:16;3.30;99.90
12655;DHT22;6392;44.644;11.448;2023-12-07T08:19:45;3.30;99.90
12655;DHT22;6392;44.644;11.448;2023-12-07T08:22:11;3.40;99.90
12655;DHT22;6392;44.644;11.448;2023-12-07T08:24:39;3.40;99.90
12655;DHT22;6392;44.644;11.448;2023-12-07T08:27:06;3.50;99.90
12655;DHT22;6392;44.644;11.448;2023-12-07T08:29:34;3.60;99.90
12655;DHT22;6392;44.644;11.448;2023-12-07T08:32:02;3.70;99.90
12655;DHT22;6392;44.644;11.448;2023-12-07T08:34:29;3.80;99.90
12655;DHT22;6392;44.644;11.448;2023-12-07T08:36:56;3.80;99.90
12655;DHT22;6392;44.644;11.448;2023-12-07T08:39:24;3.90;99.90
12655;DHT22;6392;44.644;11.448;2023-12-07T08:41:51;3.90;99.90
12655;DHT22;6392;44.644;11.448;2023-12-07T08:44:18;4.00;99.90
12655;DHT22;6392;44.644;11.448;2023-12-07T08:46:47;4.00;99.90
12655;DHT22;6392;44.644;11.448;2023-12-07T08:49:14;4.10;99.90
12655;DHT22;6392;44.644;11.448;2023-12-07T08:51:41;4.10;99.90
12655;DHT22;6392;44.644;11.448;2023-12-07T08:54:09;4.20;99.90
12655;DHT22;6392;44.644;11.448;2023-12-07T08:56:36;4.20;99.90
12655;DHT22;6392;44.644;11.448;2023-12-07T08:59:03;4.30;99.90
12655;DHT22;6392;44.644;11.448;2023-12-07T09:01:30;4.40;99.90
12655;DHT22;6392;44.644;11.448;2023-12-07T09:04:00;4.40;99.90
12655;DHT22;6392;44.644;11.448;2023-12-07T09:06:27;4.50;99.90
12655;DHT22;6392;44.644;11.448;2023-12-07T09:08:55;4.50;99.90
12655;DHT22;6392;44.644;11.448;2023-12-07T09:11:22;4.60;99.90
12655;DHT22;6392;44.644;11.448;2023-12-07T09:13:49;4.70;99.90
12655;DHT22;6392;44.644;11.448;2023-12-07T09:16:16;4.70;99.90
12655;DHT22;6392;44.644;11.448;2023-12-07T09:18:43;4.70;99.90
12655;DHT22;6392;44.644;11.448;2023-12-07T09:21:13;4.70;99.90
12655;DHT22;6392;44.644;11.448;2023-12-07T09:23:40;4.70;99.90
12655;DHT22;6392;44.644;11.448;2023-12-07T09:26:08;4.80;99.90
12655;DHT22;6392;44.644;11.448;2023-12-07T09:28:35;4.80;99.90
12655;DHT22;6392;44.644;11.448;2023-12-07T09:31:03;4.90;99.90
12655;DHT22;6392;44.644;11.448;2023-12-07T09:33:30;4.90;99.90
12655;DHT22;6392;44.644;11.448;2023-12-07T09:35:57;5.00;99.90
12655;DHT22;6392;44.644;11.448;2023-12-07T09:38:26;4.90;99.90
12655;DHT22;6392;44.644;11.448;2023-12-07T09:40:53;5.00;99.90
12655;DHT22;6392;44.644;11.448;2023-12-07T09:43:21;5.00;99.90
12655;DHT22;6392;44.644;11.448;2023-12-07T09:45:48;5.10;99.90
12655;DHT22;6392;44.644;11.448;2023-12-07T09:48:17;5.20;99.90
12655;DHT22;6392;44.644;11.448;2023-12-07T09:50:44;5.30;99.90
12655;DHT22;6392;44.644;11.448;2023-12-07T09:53:11;5.30;99.90
12655;DHT22;6392;44.644;11.448;2023-12-07T09:55:40;5.40;99.90
12655;DHT22;6392;44.644;11.448;2023-12-07T09:58:07;5.40;99.90
12655;DHT22;6392;44.644;11.448;2023-12-07T10:00:34;5.50;99.90
12655;DHT22;6392;44.644;11.448;2023-12-07T10:03:01;5.70;99.90
12655;DHT22;6392;44.644;11.448;2023-12-07T10:05:29;5.70;99.90
12655;DHT22;6392;44.644;11.448;2023-12-07T10:07:56;5.80;99.90
12655;DHT22;6392;44.644;11.448;2023-12-07T10:10:24;5.80;99.90
12655;DHT22;6392;44.644;11.448;2023-12-07T10:12:54;5.80;99.90
12655;DHT22;6392;44.644;11.448;2023-12-07T10:15:22;5.90;99.90
12655;DHT22;6392;44.644;11.448;2023-12-07T10:17:50;6.00;99.90
12655;DHT22;6392;44.644;11.448;2023-12-07T10:20:18;6.00;99.90
12655;DHT22;6392;44.644;11.448;2023-12-07T10:22:49;6.00;99.90
12655;DHT22;6392;44.644;11.448;2023-12-07T10:25:27;6.10;99.90
12655;DHT22;6392;44.644;11.448;2023-12-07T10:27:55;6.20;99.90
12655;DHT22;6392;44.644;11.448;2023-12-07T10:30:22;6.30;99.90
12655;DHT22;6392;44.644;11.448;2023-12-07T10:32:51;6.30;99.90
12655;DHT22;6392;44.644;11.448;2023-12-07T10:35:19;6.30;99.90
12655;DHT22;6392;44.644;11.448;2023-12-07T10:37:46;6.30;99.90
12655;DHT22;6392;44.644;11.448;2023-12-07T10:40:13;6.30;99.90
12655;DHT22;6392;44.644;11.448;2023-12-07T10:42:41;6.40;99.90
12655;DHT22;6392;44.644;11.448;2023-12-07T10:45:11;6.50;99.90
12655;DHT22;6392;44.644;11.448;2023-12-07T10:47:40;6.60;99.90
12655;DHT22;6392;44.644;11.448;2023-12-07T10:50:10;6.60;99.90
12655;DHT22;6392;44.644;11.448;2023-12-07T10:52:44;6.60;99.90
12655;DHT22;6392;44.644;11.448;2023-12-07T10:55:16;6.60;99.90
12655;DHT22;6392;44.644;11.448;2023-12-07T10:57:44;6.70;99.90
12655;DHT22;6392;44.644;11.448;2023-12-07T11:00:15;6.70;99.90
12655;DHT22;6392;44.644;11.448;2023-12-07T11:02:45;6.80;99.90
12655;DHT22;6392;44.644;11.448;2023-12-07T11:05:13;6.80;99.90
12655;DHT22;6392;44.644;11.448;2023-12-07T11:07:50;6.80;99.90
12655;DHT22;6392;44.644;11.448;2023-12-07T11:10:23;6.80;99.90
12655;DHT22;6392;44.644;11.448;2023-12-07T11:12:56;6.90;99.90
12655;DHT22;6392;44.644;11.448;2023-12-07T11:15:26;6.90;99.90
12655;DHT22;6392;44.644;11.448;2023-12-07T11:17:55;6.90;99.90
12655;DHT22;6392;44.644;11.448;2023-12-07T11:20:32;7.00;99.90
12655;DHT22;6392;44.644;11.448;2023-12-07T11:22:59;7.10;99.90
12655;DHT22;6392;44.644;11.448;2023-12-07T11:25:26;7.20;99.90
12655;DHT22;6392;44.644;11.448;2023-12-07T11:28:00;7.30;99.90
12655;DHT22;6392;44.644;11.448;2023-12-07T11:30:31;7.30;99.90
12655;DHT22;6392;44.644;11.448;2023-12-07T11:32:59;7.30;99.90
12655;DHT22;6392;44.644;11.448;2023-12-07T11:35:27;7.30;99.90
12655;DHT22;6392;44.644;11.448;2023-12-07T11:38:04;7.40;99.90
12655;DHT22;6392;44.644;11.448;2023-12-07T11:40:35;7.50;99.90
12655;DHT22;6392;44.644;11.448;2023-12-07T11:43:02;7.50;99.90
12655;DHT22;6392;44.644;11.448;2023-12-07T11:45:46;7.50;99.90
12655;DHT22;6392;44.644;11.448;2023-12-07T11:48:15;7.60;99.90
12655;DHT22;6392;44.644;11.448;2023-12-07T11:50:59;7.60;99.90
12655;DHT22;6392;44.644;11.448;2023-12-07T11:53:28;7.70;99.90
12655;DHT22;6392;44.644;11.448;2023-12-07T11:55:56;7.70;99.90
12655;DHT22;6392;44.644;11.448;2023-12-07T11:58:24;7.80;99.90
12655;DHT22;6392;44.644;11.448;2023-12-07T12:00:53;7.80;99.90
12655;DHT22;6392;44.644;11.448;2023-12-07T12:03:22;7.80;99.90
12655;DHT22;6392;44.644;11.448;2023-12-07T12:05:49;7.80;99.90
12655;DHT22;6392;44.644;11.448;2023-12-07T12:08:17;7.90;99.90
12655;DHT22;6392;44.644;11.448;2023-12-07T12:10:45;8.00;99.90
12655;DHT22;6392;44.644;11.448;2023-12-07T12:13:13;8.00;99.90
12655;DHT22;6392;44.644;11.448;2023-12-07T12:15:40;8.10;99.90
12655;DHT22;6392;44.644;11.448;2023-12-07T12:18:09;8.20;99.90
12655;DHT22;6392;44.644;11.448;2023-12-07T12:20:38;8.20;99.90
12655;DHT22;6392;44.644;11.448;2023-12-07T12:23:05;8.20;99.90
12655;DHT22;6392;44.644;11.448;2023-12-07T12:25:33;8.30;99.90
12655;DHT22;6392;44.644;11.448;2023-12-07T12:28:02;8.30;99.90
12655;DHT22;6392;44.644;11.448;2023-12-07T12:30:30;8.30;99.90
12655;DHT22;6392;44.644;11.448;2023-12-07T12:32:58;8.40;99.90
12655;DHT22;6392;44.644;11.448;2023-12-07T12:35:27;8.50;99.90
12655;DHT22;6392;44.644;11.448;2023-12-07T12:37:54;8.50;99.90
12655;DHT22;6392;44.644;11.448;2023-12-07T12:40:22;8.60;99.90
12655;DHT22;6392;44.644;11.448;2023-12-07T12:42:51;8.70;99.90
12655;DHT22;6392;44.644;11.448;2023-12-07T12:45:19;8.80;99.90
12655;DHT22;6392;44.644;11.448;2023-12-07T12:47:47;8.90;99.90
12655;DHT22;6392;44.644;11.448;2023-12-07T12:50:33;9.00;99.90
12655;DHT22;6392;44.644;11.448;2023-12-07T12:53:03;9.10;99.90
12655;DHT22;6392;44.644;11.448;2023-12-07T12:55:32;9.20;99.90
12655;DHT22;6392;44.644;11.448;2023-12-07T12:57:59;9.30;99.90
12655;DHT22;6392;44.644;11.448;2023-12-07T13:00:27;9.40;99.90
12655;DHT22;6392;44.644;11.448;2023-12-07T13:02:54;9.50;99.90
12655;DHT22;6392;44.644;11.448;2023-12-07T13:05:21;9.60;99.90
12655;DHT22;6392;44.644;11.448;2023-12-07T13:07:50;9.60;99.90
12655;DHT22;6392;44.644;11.448;2023-12-07T13:10:17;9.60;99.90
12655;DHT22;6392;44.644;11.448;2023-12-07T13:12:44;9.80;99.90
12655;DHT22;6392;44.644;11.448;2023-12-07T13:15:12;9.90;99.90
12655;DHT22;6392;44.644;11.448;2023-12-07T13:17:39;10.00;99.90
12655;DHT22;6392;44.644;11.448;2023-12-07T13:20:07;10.10;99.90
12655;DHT22;6392;44.644;11.448;2023-12-07T13:22:36;10.10;99.90
12655;DHT22;6392;44.644;11.448;2023-12-07T13:25:06;10.20;99.90
12655;DHT22;6392;44.644;11.448;2023-12-07T13:27:33;10.30;99.90
12655;DHT22;6392;44.644;11.448;2023-12-07T13:30:01;10.40;99.90
12655;DHT22;6392;44.644;11.448;2023-12-07T13:32:31;10.40;99.90
12655;DHT22;6392;44.644;11.448;2023-12-07T13:34:58;10.40;99.90
12655;DHT22;6392;44.644;11.448;2023-12-07T13:37:25;10.50;99.90
12655;DHT22;6392;44.644;11.448;2023-12-07T13:39:52;10.60;99.90
12655;DHT22;6392;44.644;11.448;2023-12-07T13:42:26;10.70;99.90
12655;DHT22;6392;44.644;11.448;2023-12-07T13:44:54;10.70;99.90
12655;DHT22;6392;44.644;11.448;2023-12-07T13:47:23;10.80;99.90
12655;DHT22;6392;44.644;11.448;2023-12-07T13:49:57;10.90;99.90
12655;DHT22;6392;44.644;11.448;2023-12-07T13:52:24;10.90;99.90
12655;DHT22;6392;44.644;11.448;2023-12-07T13:54:51;10.90;99.90
12655;DHT22;6392;44.644;11.448;2023-12-07T13:57:19;11.00;99.90
12655;DHT22;6392;44.644;11.448;2023-12-07T13:59:47;11.00;99.90
12655;DHT22;6392;44.644;11.448;2023-12-07T14:02:16;11.10;99.90
12655;DHT22;6392;44.644;11.448;2023-12-07T14:04:43;11.10;99.90
12655;DHT22;6392;44.644;11.448;2023-12-07T14:07:11;11.20;99.90
12655;DHT22;6392;44.644;11.448;2023-12-07T14:09:41;11.30;99.90
12655;DHT22;6392;44.644;11.448;2023-12-07T14:12:09;11.30;99.90
12655;DHT22;6392;44.644;11.448;2023-12-07T14:14:38;11.40;99.90
12655;DHT22;6392;44.644;11.448;2023-12-07T14:17:07;11.30;99.90
12655;DHT22;6392;44.644;11.448;2023-12-07T14:19:34;11.20;99.90
12655;DHT22;6392;44.644;11.448;2023-12-07T14:22:02;11.10;99.90
12655;DHT22;6392;44.644;11.448;2023-12-07T14:24:29;11.00;99.90
12655;DHT22;6392;44.644;11.448;2023-12-07T14:26:57;10.90;99.90
12655;DHT22;6392;44.644;11.448;2023-12-07T14:29:24;10.70;99.90
12655;DHT22;6392;44.644;11.448;2023-12-07T14:31:51;10.70;99.90
12655;DHT22;6392;44.644;11.448;2023-12-07T14:34:20;10.70;99.90
12655;DHT22;6392;44.644;11.448;2023-12-07T14:36:47;10.70;99.90
12655;DHT22;6392;44.644;11.448;2023-12-07T14:39:14;10.70;99.90
12655;DHT22;6392;44.644;11.448;2023-12-07T14:41:44;10.70;99.90
12655;DHT22;6392;44.644;11.448;2023-12-07T14:44:12;10.60;99.90
12655;DHT22;6392;44.644;11.448;2023-12-07T14:46:41;10.40;99.90
12655;DHT22;6392;44.644;11.448;2023-12-07T14:49:09;10.20;99.90
12655;DHT22;6392;44.644;11.448;2023-12-07T14:51:38;10.10;99.90
12655;DHT22;6392;44.644;11.448;2023-12-07T14:54:05;10.00;99.90
12655;DHT22;6392;44.644;11.448;2023-12-07T14:56:32;9.90;99.90
12655;DHT22;6392;44.644;11.448;2023-12-07T14:59:00;9.80;99.90
12655;DHT22;6392;44.644;11.448;2023-12-07T15:01:27;9.70;99.90
12655;DHT22;6392;44.644;11.448;2023-12-07T15:03:55;9.60;99.90
12655;DHT22;6392;44.644;11.448;2023-12-07T15:06:22;9.60;99.90
12655;DHT22;6392;44.644;11.448;2023-12-07T15:08:51;9.50;99.90
12655;DHT22;6392;44.644;11.448;2023-12-07T15:11:18;9.40;99.90
12655;DHT22;6392;44.644;11.448;2023-12-07T15:13:45;9.30;99.90
12655;DHT22;6392;44.644;11.448;2023-12-07T15:16:12;9.30;99.90
12655;DHT22;6392;44.644;11.448;2023-12-07T15:18:40;9.20;99.90
12655;DHT22;6392;44.644;11.448;2023-12-07T15:21:10;9.10;99.90
12655;DHT22;6392;44.644;11.448;2023-12-07T15:23:38;9.00;99.90
12655;DHT22;6392;44.644;11.448;2023-12-07T15:26:07;8.90;99.90
12655;DHT22;6392;44.644;11.448;2023-12-07T15:28:34;8.90;99.90
12655;DHT22;6392;44.644;11.448;2023-12-07T15:31:02;8.80;99.90
12655;DHT22;6392;44.644;11.448;2023-12-07T15:33:29;8.70;99.90
12655;DHT22;6392;44.644;11.448;2023-12-07T15:35:56;8.60;99.90
12655;DHT22;6392;44.644;11.448;2023-12-07T15:38:23;8.50;99.90
12655;DHT22;6392;44.644;11.448;2023-12-07T15:40:50;8.40;99.90
12655;DHT22;6392;44.644;11.448;2023-12-07T15:43:22;8.30;99.90
12655;DHT22;6392;44.644;11.448;2023-12-07T15:45:50;8.20;99.90
12655;DHT22;6392;44.644;11.448;2023-12-07T15:48:17;8.20;99.90
12655;DHT22;6392;44.644;11.448;2023-12-07T15:50:45;8.00;99.90